Westcliffe, CO (81252)

12:37 PM MDT on September 03, 2015 (GMT -0600)
rosita | | Change Station
CLOSE
Current Station
Personal Weather Station
Location: Westcliffe, CO
Elevation: 9124 ft
Nearby Weather Stations

Elev 9124 ft 38.11 °N, 105.35 °W | Updated 4 seconds ago

Mostly Cloudy
Mostly Cloudy
72.2 °F
Feels Like 77 °F
N
5.8
Wind Variable Wind from North
Gusts 9.2 mph

Today
High -- | Low -- °F
--% Chance of Precip.
Yesterday
High -- | Low -- °F
Precip. -- in
6:32 AM 7:28 PM
Waning Gibbous, 68% visible
Pressure 30.26 in
Visibility 10.0 miles
Clouds Overcast 10000 ft
Heat Index 77 °F
Dew Point 44 °F
Humidity 37%
Rainfall 0.00 in
Snow Depth Not available.
UV 3 out of 12
Pollen 10.80 out of 12
Air Quality Not available.
Flu Activity Not available.
METAR K04V 031826Z AUTO 26005KT 10SM OVC100 21/07 A3026 RMK AO2 LTG DSNT W
Pressure 30.26 in
Visibility 10.0 miles
Clouds Overcast 10000 ft
Heat Index 77 °F
Dew Point 44 °F
Humidity 37%
Rainfall 0.00 in
Snow Depth Not available.
UV 3 out of 12
Pollen 10.80 out of 12
Air Quality Not available.
Flu Activity Not available.
METAR K04V 031826Z AUTO 26005KT 10SM OVC100 21/07 A3026 RMK AO2 LTG DSNT W

10-Day Weather Forecast

×

Almanac

Astronomy

Sep. 03, 2015 Rise Set
Actual Time
Civil Twilight
Nautical Twilight
Astronomical Twilight
Moon
Length of Visible Light
Length of Day
Tomorrow will be .
, % of the Moon is Illuminated

Today's Extremes

State Highs State Lows

Community

WunderPhotos

Upload Photos

1,851,999 photos uploaded!

WunderBlogs® & News

Nearby

Air Quality

  Air Quality AQ Index Pollutant
Not available.

Snow Depth

Station Depth Elevation

Earthquake Activity

City Distance Mag. Time & Date
Minimum magnitude displayed is 2.5.

Coastal Water Temperatures

Place Temperature

Stations

Nearby Weather Stations

Station Location Temp. Windchill Dew Point Humidity Wind Precip. Elev Updated Type